sensor_id;sensor_type;location;lat;lon;timestamp;temperature;humidity
19829;DHT22;10075;50.924;4.396;2023-08-08T00:00:00;16.00;99.90
19829;DHT22;10075;50.924;4.396;2023-08-08T00:02:27;16.00;99.90
19829;DHT22;10075;50.924;4.396;2023-08-08T00:04:54;15.90;99.90
19829;DHT22;10075;50.924;4.396;2023-08-08T00:07:21;15.90;99.90
19829;DHT22;10075;50.924;4.396;2023-08-08T00:09:48;15.80;99.90
19829;DHT22;10075;50.924;4.396;2023-08-08T00:12:16;15.80;99.90
19829;DHT22;10075;50.924;4.396;2023-08-08T00:14:43;15.80;99.90
19829;DHT22;10075;50.924;4.396;2023-08-08T00:17:10;15.70;99.90
19829;DHT22;10075;50.924;4.396;2023-08-08T00:19:37;15.70;99.90
19829;DHT22;10075;50.924;4.396;2023-08-08T00:22:04;15.60;99.90
19829;DHT22;10075;50.924;4.396;2023-08-08T00:24:32;15.60;99.90
19829;DHT22;10075;50.924;4.396;2023-08-08T00:26:59;15.60;99.90
19829;DHT22;10075;50.924;4.396;2023-08-08T00:29:27;15.60;99.90
19829;DHT22;10075;50.924;4.396;2023-08-08T00:31:54;15.50;99.90
19829;DHT22;10075;50.924;4.396;2023-08-08T00:34:21;15.60;99.90
19829;DHT22;10075;50.924;4.396;2023-08-08T00:36:48;15.50;99.90
19829;DHT22;10075;50.924;4.396;2023-08-08T00:39:15;15.50;99.90
19829;DHT22;10075;50.924;4.396;2023-08-08T00:41:42;15.40;99.90
19829;DHT22;10075;50.924;4.396;2023-08-08T00:44:10;15.40;99.90
19829;DHT22;10075;50.924;4.396;2023-08-08T00:46:38;15.40;99.90
19829;DHT22;10075;50.924;4.396;2023-08-08T00:49:05;15.50;99.90
19829;DHT22;10075;50.924;4.396;2023-08-08T00:51:32;15.40;99.90
19829;DHT22;10075;50.924;4.396;2023-08-08T00:53:59;15.50;99.90
19829;DHT22;10075;50.924;4.396;2023-08-08T00:56:27;15.40;99.90
19829;DHT22;10075;50.924;4.396;2023-08-08T00:58:54;15.40;99.90
19829;DHT22;10075;50.924;4.396;2023-08-08T01:01:21;15.40;99.90
19829;DHT22;10075;50.924;4.396;2023-08-08T01:03:49;15.40;99.90
19829;DHT22;10075;50.924;4.396;2023-08-08T01:06:23;15.40;99.90
19829;DHT22;10075;50.924;4.396;2023-08-08T01:08:57;15.30;99.90
19829;DHT22;10075;50.924;4.396;2023-08-08T01:11:25;15.30;99.90
19829;DHT22;10075;50.924;4.396;2023-08-08T01:13:55;15.30;99.90
19829;DHT22;10075;50.924;4.396;2023-08-08T01:16:23;15.30;99.90
19829;DHT22;10075;50.924;4.396;2023-08-08T01:18:52;15.20;99.90
19829;DHT22;10075;50.924;4.396;2023-08-08T01:21:20;15.20;99.90
19829;DHT22;10075;50.924;4.396;2023-08-08T01:23:53;15.20;99.90
19829;DHT22;10075;50.924;4.396;2023-08-08T01:26:22;15.20;99.90
19829;DHT22;10075;50.924;4.396;2023-08-08T01:28:52;15.10;99.90
19829;DHT22;10075;50.924;4.396;2023-08-08T01:31:19;15.10;99.90
19829;DHT22;10075;50.924;4.396;2023-08-08T01:33:47;15.00;99.90
19829;DHT22;10075;50.924;4.396;2023-08-08T01:36:19;15.00;99.90
19829;DHT22;10075;50.924;4.396;2023-08-08T01:38:49;15.00;99.90
19829;DHT22;10075;50.924;4.396;2023-08-08T01:41:18;15.00;99.90
19829;DHT22;10075;50.924;4.396;2023-08-08T01:43:48;15.00;99.90
19829;DHT22;10075;50.924;4.396;2023-08-08T01:46:15;15.00;99.90
19829;DHT22;10075;50.924;4.396;2023-08-08T01:48:45;15.00;99.90
19829;DHT22;10075;50.924;4.396;2023-08-08T01:51:12;15.00;99.90
19829;DHT22;10075;50.924;4.396;2023-08-08T01:53:39;15.00;99.90
19829;DHT22;10075;50.924;4.396;2023-08-08T01:56:06;14.90;99.90
19829;DHT22;10075;50.924;4.396;2023-08-08T01:58:34;14.90;99.90
19829;DHT22;10075;50.924;4.396;2023-08-08T02:01:01;14.90;99.90
19829;DHT22;10075;50.924;4.396;2023-08-08T02:03:28;14.90;99.90
19829;DHT22;10075;50.924;4.396;2023-08-08T02:05:55;15.00;99.90
19829;DHT22;10075;50.924;4.396;2023-08-08T02:08:22;14.90;99.90
19829;DHT22;10075;50.924;4.396;2023-08-08T02:10:49;14.90;99.90
19829;DHT22;10075;50.924;4.396;2023-08-08T02:13:16;14.90;99.90
19829;DHT22;10075;50.924;4.396;2023-08-08T02:15:43;15.00;99.90
19829;DHT22;10075;50.924;4.396;2023-08-08T02:18:12;15.00;99.90
19829;DHT22;10075;50.924;4.396;2023-08-08T02:20:39;14.90;99.90
19829;DHT22;10075;50.924;4.396;2023-08-08T02:23:06;14.80;99.90
19829;DHT22;10075;50.924;4.396;2023-08-08T02:25:33;14.80;99.90
19829;DHT22;10075;50.924;4.396;2023-08-08T02:28:00;14.90;99.90
19829;DHT22;10075;50.924;4.396;2023-08-08T02:30:27;14.80;99.90
19829;DHT22;10075;50.924;4.396;2023-08-08T02:32:54;14.80;99.90
19829;DHT22;10075;50.924;4.396;2023-08-08T02:35:22;14.80;99.90
19829;DHT22;10075;50.924;4.396;2023-08-08T02:37:49;14.70;99.90
19829;DHT22;10075;50.924;4.396;2023-08-08T02:40:16;14.70;99.90
19829;DHT22;10075;50.924;4.396;2023-08-08T02:42:43;14.70;99.90
19829;DHT22;10075;50.924;4.396;2023-08-08T02:45:10;14.70;99.90
19829;DHT22;10075;50.924;4.396;2023-08-08T02:47:37;14.70;99.90
19829;DHT22;10075;50.924;4.396;2023-08-08T02:50:04;14.70;99.90
19829;DHT22;10075;50.924;4.396;2023-08-08T02:52:33;14.70;99.90
19829;DHT22;10075;50.924;4.396;2023-08-08T02:55:00;14.70;99.90
19829;DHT22;10075;50.924;4.396;2023-08-08T02:57:28;14.70;99.90
19829;DHT22;10075;50.924;4.396;2023-08-08T02:59:55;14.70;99.90
19829;DHT22;10075;50.924;4.396;2023-08-08T03:02:22;14.60;99.90
19829;DHT22;10075;50.924;4.396;2023-08-08T03:04:50;14.60;99.90
19829;DHT22;10075;50.924;4.396;2023-08-08T03:07:17;14.60;99.90
19829;DHT22;10075;50.924;4.396;2023-08-08T03:09:45;14.60;99.90
19829;DHT22;10075;50.924;4.396;2023-08-08T03:12:12;14.60;99.90
19829;DHT22;10075;50.924;4.396;2023-08-08T03:14:39;14.60;99.90
19829;DHT22;10075;50.924;4.396;2023-08-08T03:17:06;14.50;99.90
19829;DHT22;10075;50.924;4.396;2023-08-08T03:19:33;14.50;99.90
19829;DHT22;10075;50.924;4.396;2023-08-08T03:22:00;14.40;99.90
19829;DHT22;10075;50.924;4.396;2023-08-08T03:24:27;14.40;99.90
19829;DHT22;10075;50.924;4.396;2023-08-08T03:26:55;14.40;99.90
19829;DHT22;10075;50.924;4.396;2023-08-08T03:29:22;14.40;99.90
19829;DHT22;10075;50.924;4.396;2023-08-08T03:31:49;14.40;99.90
19829;DHT22;10075;50.924;4.396;2023-08-08T03:34:16;14.40;99.90
19829;DHT22;10075;50.924;4.396;2023-08-08T03:36:43;14.30;99.90
19829;DHT22;10075;50.924;4.396;2023-08-08T03:39:10;14.40;99.90
19829;DHT22;10075;50.924;4.396;2023-08-08T03:41:37;14.30;99.90
19829;DHT22;10075;50.924;4.396;2023-08-08T03:44:06;14.30;99.90
19829;DHT22;10075;50.924;4.396;2023-08-08T03:46:33;14.30;99.90
19829;DHT22;10075;50.924;4.396;2023-08-08T03:49:00;14.20;99.90
19829;DHT22;10075;50.924;4.396;2023-08-08T03:51:27;14.20;99.90
19829;DHT22;10075;50.924;4.396;2023-08-08T03:53:54;14.30;99.90
19829;DHT22;10075;50.924;4.396;2023-08-08T03:56:21;14.30;99.90
19829;DHT22;10075;50.924;4.396;2023-08-08T03:58:48;14.30;99.90
19829;DHT22;10075;50.924;4.396;2023-08-08T04:01:16;14.30;99.90
19829;DHT22;10075;50.924;4.396;2023-08-08T04:03:43;14.30;99.90
19829;DHT22;10075;50.924;4.396;2023-08-08T04:06:10;14.20;99.90
19829;DHT22;10075;50.924;4.396;2023-08-08T04:08:37;14.30;99.90
19829;DHT22;10075;50.924;4.396;2023-08-08T04:11:04;14.20;99.90
19829;DHT22;10075;50.924;4.396;2023-08-08T04:13:31;14.20;99.90
19829;DHT22;10075;50.924;4.396;2023-08-08T04:15:58;14.20;99.90
19829;DHT22;10075;50.924;4.396;2023-08-08T04:18:33;14.20;99.90
19829;DHT22;10075;50.924;4.396;2023-08-08T04:21:00;14.20;99.90
19829;DHT22;10075;50.924;4.396;2023-08-08T04:23:26;14.20;99.90
19829;DHT22;10075;50.924;4.396;2023-08-08T04:25:53;14.20;99.90
19829;DHT22;10075;50.924;4.396;2023-08-08T04:28:21;14.20;99.90
19829;DHT22;10075;50.924;4.396;2023-08-08T04:30:47;14.20;99.90
19829;DHT22;10075;50.924;4.396;2023-08-08T04:33:14;14.20;99.90
19829;DHT22;10075;50.924;4.396;2023-08-08T04:35:43;14.20;99.90
19829;DHT22;10075;50.924;4.396;2023-08-08T04:38:10;14.30;99.90
19829;DHT22;10075;50.924;4.396;2023-08-08T04:40:37;14.30;99.90
19829;DHT22;10075;50.924;4.396;2023-08-08T04:43:04;14.40;99.90
19829;DHT22;10075;50.924;4.396;2023-08-08T04:45:31;14.20;99.90
19829;DHT22;10075;50.924;4.396;2023-08-08T04:47:59;14.30;99.90
19829;DHT22;10075;50.924;4.396;2023-08-08T04:50:25;14.30;99.90
19829;DHT22;10075;50.924;4.396;2023-08-08T04:52:55;14.30;99.90
19829;DHT22;10075;50.924;4.396;2023-08-08T04:55:22;14.40;99.90
19829;DHT22;10075;50.924;4.396;2023-08-08T04:57:49;14.40;99.90
19829;DHT22;10075;50.924;4.396;2023-08-08T05:00:16;14.40;99.90
19829;DHT22;10075;50.924;4.396;2023-08-08T05:02:43;14.50;99.90
19829;DHT22;10075;50.924;4.396;2023-08-08T05:05:10;14.50;99.90
19829;DHT22;10075;50.924;4.396;2023-08-08T05:07:37;14.50;99.90
19829;DHT22;10075;50.924;4.396;2023-08-08T05:10:06;14.50;99.90
19829;DHT22;10075;50.924;4.396;2023-08-08T05:12:33;14.50;99.90
19829;DHT22;10075;50.924;4.396;2023-08-08T05:15:00;14.60;99.90
19829;DHT22;10075;50.924;4.396;2023-08-08T05:17:29;14.60;99.90
19829;DHT22;10075;50.924;4.396;2023-08-08T05:19:57;14.60;99.90
19829;DHT22;10075;50.924;4.396;2023-08-08T05:22:24;14.70;99.90
19829;DHT22;10075;50.924;4.396;2023-08-08T05:24:51;14.80;99.90
19829;DHT22;10075;50.924;4.396;2023-08-08T05:27:19;14.80;99.90
19829;DHT22;10075;50.924;4.396;2023-08-08T05:29:46;14.90;99.90
19829;DHT22;10075;50.924;4.396;2023-08-08T05:32:13;15.00;99.90
19829;DHT22;10075;50.924;4.396;2023-08-08T05:34:40;15.00;99.90
19829;DHT22;10075;50.924;4.396;2023-08-08T05:37:07;15.10;99.90
19829;DHT22;10075;50.924;4.396;2023-08-08T05:39:34;15.20;99.90
19829;DHT22;10075;50.924;4.396;2023-08-08T05:42:01;15.30;99.90
19829;DHT22;10075;50.924;4.396;2023-08-08T05:44:29;15.50;99.90
19829;DHT22;10075;50.924;4.396;2023-08-08T05:46:56;15.60;99.90
19829;DHT22;10075;50.924;4.396;2023-08-08T05:49:23;15.70;99.90
19829;DHT22;10075;50.924;4.396;2023-08-08T05:51:50;15.90;99.90
19829;DHT22;10075;50.924;4.396;2023-08-08T05:54:17;15.90;99.90
19829;DHT22;10075;50.924;4.396;2023-08-08T05:56:44;16.00;99.90
19829;DHT22;10075;50.924;4.396;2023-08-08T05:59:11;16.00;99.90
19829;DHT22;10075;50.924;4.396;2023-08-08T06:01:39;16.10;99.90
19829;DHT22;10075;50.924;4.396;2023-08-08T06:04:06;16.10;99.90
19829;DHT22;10075;50.924;4.396;2023-08-08T06:06:33;16.10;99.90
19829;DHT22;10075;50.924;4.396;2023-08-08T06:09:00;16.00;99.90
19829;DHT22;10075;50.924;4.396;2023-08-08T06:11:28;15.90;99.90
19829;DHT22;10075;50.924;4.396;2023-08-08T06:13:55;15.80;99.90
19829;DHT22;10075;50.924;4.396;2023-08-08T06:16:22;15.90;99.90
19829;DHT22;10075;50.924;4.396;2023-08-08T06:18:51;16.00;99.90
19829;DHT22;10075;50.924;4.396;2023-08-08T06:21:18;16.00;99.90
19829;DHT22;10075;50.924;4.396;2023-08-08T06:23:45;16.10;99.90
19829;DHT22;10075;50.924;4.396;2023-08-08T06:26:13;16.30;99.90
19829;DHT22;10075;50.924;4.396;2023-08-08T06:28:40;16.40;99.90
19829;DHT22;10075;50.924;4.396;2023-08-08T06:31:07;16.50;99.90
19829;DHT22;10075;50.924;4.396;2023-08-08T06:33:34;16.70;99.90
19829;DHT22;10075;50.924;4.396;2023-08-08T06:36:03;16.80;99.90
19829;DHT22;10075;50.924;4.396;2023-08-08T06:38:30;16.90;99.90
19829;DHT22;10075;50.924;4.396;2023-08-08T06:40:59;17.00;99.90
19829;DHT22;10075;50.924;4.396;2023-08-08T06:43:26;17.10;99.90
19829;DHT22;10075;50.924;4.396;2023-08-08T06:45:53;17.20;99.90
19829;DHT22;10075;50.924;4.396;2023-08-08T06:48:20;17.30;99.90
19829;DHT22;10075;50.924;4.396;2023-08-08T06:50:48;17.40;99.90
19829;DHT22;10075;50.924;4.396;2023-08-08T06:53:17;17.40;99.90
19829;DHT22;10075;50.924;4.396;2023-08-08T06:55:44;17.60;99.90
19829;DHT22;10075;50.924;4.396;2023-08-08T06:58:11;17.70;99.90
19829;DHT22;10075;50.924;4.396;2023-08-08T07:00:38;17.70;99.90
19829;DHT22;10075;50.924;4.396;2023-08-08T07:03:05;17.90;99.90
19829;DHT22;10075;50.924;4.396;2023-08-08T07:05:32;17.90;99.90
19829;DHT22;10075;50.924;4.396;2023-08-08T07:07:59;18.10;99.90
19829;DHT22;10075;50.924;4.396;2023-08-08T07:10:28;18.20;99.90
19829;DHT22;10075;50.924;4.396;2023-08-08T07:12:55;18.30;99.90
19829;DHT22;10075;50.924;4.396;2023-08-08T07:15:22;18.40;99.90
19829;DHT22;10075;50.924;4.396;2023-08-08T07:17:49;18.50;99.90
19829;DHT22;10075;50.924;4.396;2023-08-08T07:20:16;18.60;99.90
19829;DHT22;10075;50.924;4.396;2023-08-08T07:22:43;18.60;99.90
19829;DHT22;10075;50.924;4.396;2023-08-08T07:25:10;18.60;99.90
19829;DHT22;10075;50.924;4.396;2023-08-08T07:27:39;18.60;99.90
19829;DHT22;10075;50.924;4.396;2023-08-08T07:30:06;18.60;99.90
19829;DHT22;10075;50.924;4.396;2023-08-08T07:32:34;18.70;99.90
19829;DHT22;10075;50.924;4.396;2023-08-08T07:35:01;18.80;99.90
19829;DHT22;10075;50.924;4.396;2023-08-08T07:37:31;19.00;99.90
19829;DHT22;10075;50.924;4.396;2023-08-08T07:39:58;19.10;99.90
19829;DHT22;10075;50.924;4.396;2023-08-08T07:42:26;19.20;99.90
19829;DHT22;10075;50.924;4.396;2023-08-08T07:44:54;19.30;99.90
19829;DHT22;10075;50.924;4.396;2023-08-08T07:47:21;19.40;99.90
19829;DHT22;10075;50.924;4.396;2023-08-08T07:49:48;19.40;99.90
19829;DHT22;10075;50.924;4.396;2023-08-08T07:52:15;19.30;99.90
19829;DHT22;10075;50.924;4.396;2023-08-08T07:54:42;19.10;99.90
19829;DHT22;10075;50.924;4.396;2023-08-08T07:57:09;19.00;99.90
19829;DHT22;10075;50.924;4.396;2023-08-08T07:59:36;19.00;99.90
19829;DHT22;10075;50.924;4.396;2023-08-08T08:02:05;19.10;99.90
19829;DHT22;10075;50.924;4.396;2023-08-08T08:04:33;19.30;99.90
19829;DHT22;10075;50.924;4.396;2023-08-08T08:07:00;19.40;99.90
19829;DHT22;10075;50.924;4.396;2023-08-08T08:09:27;19.60;99.90
19829;DHT22;10075;50.924;4.396;2023-08-08T08:11:54;19.70;99.90
19829;DHT22;10075;50.924;4.396;2023-08-08T08:14:22;19.70;99.90
19829;DHT22;10075;50.924;4.396;2023-08-08T08:16:50;19.80;99.90
19829;DHT22;10075;50.924;4.396;2023-08-08T08:19:19;19.80;99.90
19829;DHT22;10075;50.924;4.396;2023-08-08T08:21:46;19.90;99.90
19829;DHT22;10075;50.924;4.396;2023-08-08T08:24:13;20.10;99.90
19829;DHT22;10075;50.924;4.396;2023-08-08T08:26:40;20.20;99.90
19829;DHT22;10075;50.924;4.396;2023-08-08T08:29:07;20.30;99.90
19829;DHT22;10075;50.924;4.396;2023-08-08T08:31:34;20.50;99.90
19829;DHT22;10075;50.924;4.396;2023-08-08T08:34:03;20.70;99.90
19829;DHT22;10075;50.924;4.396;2023-08-08T08:36:31;20.90;99.90
19829;DHT22;10075;50.924;4.396;2023-08-08T08:38:58;21.10;99.90
19829;DHT22;10075;50.924;4.396;2023-08-08T08:41:27;21.20;99.90
19829;DHT22;10075;50.924;4.396;2023-08-08T08:43:54;21.20;99.90
19829;DHT22;10075;50.924;4.396;2023-08-08T08:46:22;21.20;99.90
19829;DHT22;10075;50.924;4.396;2023-08-08T08:48:51;21.10;99.90
19829;DHT22;10075;50.924;4.396;2023-08-08T08:51:21;21.00;99.90
19829;DHT22;10075;50.924;4.396;2023-08-08T08:53:50;20.90;99.90
19829;DHT22;10075;50.924;4.396;2023-08-08T08:56:17;20.80;99.90
19829;DHT22;10075;50.924;4.396;2023-08-08T08:58:45;20.60;99.90
19829;DHT22;10075;50.924;4.396;2023-08-08T09:01:12;20.70;99.90
19829;DHT22;10075;50.924;4.396;2023-08-08T09:03:40;21.00;99.90
19829;DHT22;10075;50.924;4.396;2023-08-08T09:06:08;21.30;99.90
19829;DHT22;10075;50.924;4.396;2023-08-08T09:08:35;21.50;99.90
19829;DHT22;10075;50.924;4.396;2023-08-08T09:11:04;21.70;99.90
19829;DHT22;10075;50.924;4.396;2023-08-08T09:13:36;21.60;99.90
19829;DHT22;10075;50.924;4.396;2023-08-08T09:16:04;21.60;99.90
19829;DHT22;10075;50.924;4.396;2023-08-08T09:18:32;21.60;99.90
19829;DHT22;10075;50.924;4.396;2023-08-08T09:20:59;21.60;99.90
19829;DHT22;10075;50.924;4.396;2023-08-08T09:23:26;21.50;99.90
19829;DHT22;10075;50.924;4.396;2023-08-08T09:25:53;21.40;99.90
19829;DHT22;10075;50.924;4.396;2023-08-08T09:28:21;21.20;99.90
19829;DHT22;10075;50.924;4.396;2023-08-08T09:30:49;21.10;99.90
19829;DHT22;10075;50.924;4.396;2023-08-08T09:33:17;21.00;99.90
19829;DHT22;10075;50.924;4.396;2023-08-08T09:35:44;21.10;99.90
19829;DHT22;10075;50.924;4.396;2023-08-08T09:38:11;21.30;99.90
19829;DHT22;10075;50.924;4.396;2023-08-08T09:40:38;21.40;99.90
19829;DHT22;10075;50.924;4.396;2023-08-08T09:43:07;21.40;99.90
19829;DHT22;10075;50.924;4.396;2023-08-08T09:45:39;21.60;99.90
19829;DHT22;10075;50.924;4.396;2023-08-08T09:48:07;21.80;99.90
19829;DHT22;10075;50.924;4.396;2023-08-08T09:50:35;22.00;99.90
19829;DHT22;10075;50.924;4.396;2023-08-08T09:53:03;22.10;99.90
19829;DHT22;10075;50.924;4.396;2023-08-08T09:55:30;22.20;99.90
19829;DHT22;10075;50.924;4.396;2023-08-08T09:57:58;22.20;99.90
19829;DHT22;10075;50.924;4.396;2023-08-08T10:00:26;21.90;99.90
19829;DHT22;10075;50.924;4.396;2023-08-08T10:02:55;21.50;99.90
19829;DHT22;10075;50.924;4.396;2023-08-08T10:05:25;21.30;99.90
19829;DHT22;10075;50.924;4.396;2023-08-08T10:07:54;21.20;99.90
19829;DHT22;10075;50.924;4.396;2023-08-08T10:10:21;21.10;99.90
19829;DHT22;10075;50.924;4.396;2023-08-08T10:12:48;21.30;99.90
19829;DHT22;10075;50.924;4.396;2023-08-08T10:15:15;21.40;99.90
19829;DHT22;10075;50.924;4.396;2023-08-08T10:17:42;21.60;99.90
19829;DHT22;10075;50.924;4.396;2023-08-08T10:20:11;21.60;99.90
19829;DHT22;10075;50.924;4.396;2023-08-08T10:22:45;21.50;99.90
19829;DHT22;10075;50.924;4.396;2023-08-08T10:25:19;21.40;99.90
19829;DHT22;10075;50.924;4.396;2023-08-08T10:27:49;21.30;99.90
19829;DHT22;10075;50.924;4.396;2023-08-08T10:30:16;21.20;99.90
19829;DHT22;10075;50.924;4.396;2023-08-08T10:32:44;21.10;99.90
19829;DHT22;10075;50.924;4.396;2023-08-08T10:35:13;21.00;99.90
19829;DHT22;10075;50.924;4.396;2023-08-08T10:37:40;20.90;99.90
19829;DHT22;10075;50.924;4.396;2023-08-08T10:40:18;20.90;99.90
19829;DHT22;10075;50.924;4.396;2023-08-08T10:42:47;21.00;99.90
19829;DHT22;10075;50.924;4.396;2023-08-08T10:45:15;21.10;99.90
19829;DHT22;10075;50.924;4.396;2023-08-08T10:47:43;21.30;99.90
19829;DHT22;10075;50.924;4.396;2023-08-08T10:50:13;21.40;99.90
19829;DHT22;10075;50.924;4.396;2023-08-08T10:52:54;21.50;99.90
19829;DHT22;10075;50.924;4.396;2023-08-08T10:55:22;21.70;99.90
19829;DHT22;10075;50.924;4.396;2023-08-08T10:57:57;21.80;99.90
19829;DHT22;10075;50.924;4.396;2023-08-08T11:00:27;22.00;99.90
19829;DHT22;10075;50.924;4.396;2023-08-08T11:02:55;22.10;99.90
19829;DHT22;10075;50.924;4.396;2023-08-08T11:05:24;22.20;99.90
19829;DHT22;10075;50.924;4.396;2023-08-08T11:07:52;22.50;99.90
19829;DHT22;10075;50.924;4.396;2023-08-08T11:10:20;22.60;99.90
19829;DHT22;10075;50.924;4.396;2023-08-08T11:12:58;22.90;99.90
19829;DHT22;10075;50.924;4.396;2023-08-08T11:15:25;23.00;99.90
19829;DHT22;10075;50.924;4.396;2023-08-08T11:17:53;23.10;99.90
19829;DHT22;10075;50.924;4.396;2023-08-08T11:20:22;23.00;99.90
19829;DHT22;10075;50.924;4.396;2023-08-08T11:22:53;22.50;99.90
19829;DHT22;10075;50.924;4.396;2023-08-08T11:25:21;22.40;99.90
19829;DHT22;10075;50.924;4.396;2023-08-08T11:27:49;22.30;99.90
19829;DHT22;10075;50.924;4.396;2023-08-08T11:30:16;22.40;99.90
19829;DHT22;10075;50.924;4.396;2023-08-08T11:32:44;22.50;99.90
19829;DHT22;10075;50.924;4.396;2023-08-08T11:35:11;22.70;99.90
19829;DHT22;10075;50.924;4.396;2023-08-08T11:37:40;22.70;99.90
19829;DHT22;10075;50.924;4.396;2023-08-08T11:40:07;22.50;99.90
19829;DHT22;10075;50.924;4.396;2023-08-08T11:42:35;22.40;99.90
19829;DHT22;10075;50.924;4.396;2023-08-08T11:45:03;22.50;99.90
19829;DHT22;10075;50.924;4.396;2023-08-08T11:47:30;22.50;99.90
19829;DHT22;10075;50.924;4.396;2023-08-08T11:50:01;22.70;99.90
19829;DHT22;10075;50.924;4.396;2023-08-08T11:52:29;22.70;99.90
19829;DHT22;10075;50.924;4.396;2023-08-08T11:54:59;23.00;99.90
19829;DHT22;10075;50.924;4.396;2023-08-08T11:57:26;23.10;99.90
19829;DHT22;10075;50.924;4.396;2023-08-08T11:59:54;23.10;99.90
19829;DHT22;10075;50.924;4.396;2023-08-08T12:02:22;23.00;99.90
19829;DHT22;10075;50.924;4.396;2023-08-08T12:04:50;22.80;99.90
19829;DHT22;10075;50.924;4.396;2023-08-08T12:07:17;22.80;99.90
19829;DHT22;10075;50.924;4.396;2023-08-08T12:09:47;22.90;99.90
19829;DHT22;10075;50.924;4.396;2023-08-08T12:12:15;22.90;99.90
19829;DHT22;10075;50.924;4.396;2023-08-08T12:14:43;23.10;99.90
19829;DHT22;10075;50.924;4.396;2023-08-08T12:17:10;23.40;99.90
19829;DHT22;10075;50.924;4.396;2023-08-08T12:19:45;23.60;99.90
19829;DHT22;10075;50.924;4.396;2023-08-08T12:22:13;23.50;99.90
19829;DHT22;10075;50.924;4.396;2023-08-08T12:24:40;23.50;99.90
19829;DHT22;10075;50.924;4.396;2023-08-08T12:27:07;23.60;99.90
19829;DHT22;10075;50.924;4.396;2023-08-08T12:29:35;23.80;99.90
19829;DHT22;10075;50.924;4.396;2023-08-08T12:32:02;23.90;99.90
19829;DHT22;10075;50.924;4.396;2023-08-08T12:34:33;24.00;99.90
19829;DHT22;10075;50.924;4.396;2023-08-08T12:37:00;23.80;99.90
19829;DHT22;10075;50.924;4.396;2023-08-08T12:39:28;23.80;99.90
19829;DHT22;10075;50.924;4.396;2023-08-08T12:41:55;23.60;99.90
19829;DHT22;10075;50.924;4.396;2023-08-08T12:44:22;23.50;99.90
19829;DHT22;10075;50.924;4.396;2023-08-08T12:46:50;23.60;99.90
19829;DHT22;10075;50.924;4.396;2023-08-08T12:49:17;23.60;99.90
19829;DHT22;10075;50.924;4.396;2023-08-08T12:51:44;23.40;99.90
19829;DHT22;10075;50.924;4.396;2023-08-08T12:54:11;23.20;99.90
19829;DHT22;10075;50.924;4.396;2023-08-08T12:56:38;23.20;99.90
19829;DHT22;10075;50.924;4.396;2023-08-08T12:59:05;23.30;99.90
19829;DHT22;10075;50.924;4.396;2023-08-08T13:01:32;23.40;99.90
19829;DHT22;10075;50.924;4.396;2023-08-08T13:04:00;23.50;99.90
19829;DHT22;10075;50.924;4.396;2023-08-08T13:06:29;23.50;99.90
19829;DHT22;10075;50.924;4.396;2023-08-08T13:08:56;23.40;99.90
19829;DHT22;10075;50.924;4.396;2023-08-08T13:11:23;23.50;99.90
19829;DHT22;10075;50.924;4.396;2023-08-08T13:13:50;23.40;99.90
19829;DHT22;10075;50.924;4.396;2023-08-08T13:16:17;23.30;99.90
19829;DHT22;10075;50.924;4.396;2023-08-08T13:18:44;23.30;99.90
19829;DHT22;10075;50.924;4.396;2023-08-08T13:21:13;23.30;99.90
19829;DHT22;10075;50.924;4.396;2023-08-08T13:23:41;23.00;99.90
19829;DHT22;10075;50.924;4.396;2023-08-08T13:26:08;22.90;99.90
19829;DHT22;10075;50.924;4.396;2023-08-08T13:28:35;23.00;99.90
19829;DHT22;10075;50.924;4.396;2023-08-08T13:31:02;23.00;99.90
19829;DHT22;10075;50.924;4.396;2023-08-08T13:33:29;23.30;99.90
19829;DHT22;10075;50.924;4.396;2023-08-08T13:35:56;23.40;99.90
19829;DHT22;10075;50.924;4.396;2023-08-08T13:38:24;23.40;99.90
19829;DHT22;10075;50.924;4.396;2023-08-08T13:40:51;23.60;99.90
19829;DHT22;10075;50.924;4.396;2023-08-08T13:43:18;23.80;99.90
19829;DHT22;10075;50.924;4.396;2023-08-08T13:45:45;23.90;99.90
19829;DHT22;10075;50.924;4.396;2023-08-08T13:48:12;24.00;99.90
19829;DHT22;10075;50.924;4.396;2023-08-08T13:50:39;24.10;99.90
19829;DHT22;10075;50.924;4.396;2023-08-08T13:53:06;24.40;99.90
19829;DHT22;10075;50.924;4.396;2023-08-08T13:55:35;24.80;99.90
19829;DHT22;10075;50.924;4.396;2023-08-08T13:58:05;25.10;98.90
19829;DHT22;10075;50.924;4.396;2023-08-08T14:00:32;25.40;99.90
19829;DHT22;10075;50.924;4.396;2023-08-08T14:03:00;25.60;98.90
19829;DHT22;10075;50.924;4.396;2023-08-08T14:05:27;25.70;98.60
19829;DHT22;10075;50.924;4.396;2023-08-08T14:07:54;25.50;98.10
19829;DHT22;10075;50.924;4.396;2023-08-08T14:10:21;25.10;98.30
19829;DHT22;10075;50.924;4.396;2023-08-08T14:12:49;24.80;98.90
19829;DHT22;10075;50.924;4.396;2023-08-08T14:15:16;24.60;99.20
19829;DHT22;10075;50.924;4.396;2023-08-08T14:17:43;24.30;99.60
19829;DHT22;10075;50.924;4.396;2023-08-08T14:20:11;24.10;99.90
19829;DHT22;10075;50.924;4.396;2023-08-08T14:22:38;24.10;99.90
19829;DHT22;10075;50.924;4.396;2023-08-08T14:25:05;24.00;99.90
19829;DHT22;10075;50.924;4.396;2023-08-08T14:27:32;23.70;99.90
19829;DHT22;10075;50.924;4.396;2023-08-08T14:30:02;23.50;99.90
19829;DHT22;10075;50.924;4.396;2023-08-08T14:32:29;23.40;99.90
19829;DHT22;10075;50.924;4.396;2023-08-08T14:34:56;23.30;99.90
19829;DHT22;10075;50.924;4.396;2023-08-08T14:37:23;23.00;99.90
19829;DHT22;10075;50.924;4.396;2023-08-08T14:39:51;22.80;99.90
19829;DHT22;10075;50.924;4.396;2023-08-08T14:42:18;22.40;99.90
19829;DHT22;10075;50.924;4.396;2023-08-08T14:44:45;22.10;99.90
19829;DHT22;10075;50.924;4.396;2023-08-08T14:47:14;21.90;99.90
19829;DHT22;10075;50.924;4.396;2023-08-08T14:49:41;21.80;99.90
19829;DHT22;10075;50.924;4.396;2023-08-08T14:52:08;21.70;99.90
19829;DHT22;10075;50.924;4.396;2023-08-08T14:54:35;21.70;99.90
19829;DHT22;10075;50.924;4.396;2023-08-08T14:57:02;21.70;99.90
19829;DHT22;10075;50.924;4.396;2023-08-08T14:59:29;21.70;99.90
19829;DHT22;10075;50.924;4.396;2023-08-08T15:01:56;21.80;99.90
19829;DHT22;10075;50.924;4.396;2023-08-08T15:04:24;21.90;99.90
19829;DHT22;10075;50.924;4.396;2023-08-08T15:06:51;21.90;99.90
19829;DHT22;10075;50.924;4.396;2023-08-08T15:09:18;22.00;99.90
19829;DHT22;10075;50.924;4.396;2023-08-08T15:11:46;22.00;99.90
19829;DHT22;10075;50.924;4.396;2023-08-08T15:14:14;21.90;99.90
19829;DHT22;10075;50.924;4.396;2023-08-08T15:16:41;21.80;99.90
19829;DHT22;10075;50.924;4.396;2023-08-08T15:19:08;21.70;99.90
19829;DHT22;10075;50.924;4.396;2023-08-08T15:21:37;21.60;99.90
19829;DHT22;10075;50.924;4.396;2023-08-08T15:24:05;21.60;99.90
19829;DHT22;10075;50.924;4.396;2023-08-08T15:26:32;21.40;99.90
19829;DHT22;10075;50.924;4.396;2023-08-08T15:28:59;21.20;99.90
19829;DHT22;10075;50.924;4.396;2023-08-08T15:31:26;21.10;99.90